.
WxDataArchive / Data Records for 2015-11-14
2015-11-13 November 2015 2015-11-15

Data Records for Saturday, 14 November 2015

Time	Temp	Chill	HIndex	Humid	Dewpt	 Wind 	HiWind	WindDir	Rain 	Barom
-----	----	-----	------	-----	-----	------	------	-------	-----	-----
00:00	36.2	36.2	36.2	71	27.7	0	2	338	0.00	30.169 
00:05	36.3	36.3	36.3	71	27.8	0	1	338	0.00	30.169 
00:10	36.3	36.3	36.3	71	27.8	0	1	338	0.00	30.169 
00:15	36.5	36.5	36.5	71	28.0	0	1	338	0.00	30.168 
00:20	36.8	36.8	36.8	71	28.3	0	1	338	0.00	30.168 
00:25	36.9	36.9	36.9	71	28.4	0	1	338	0.00	30.168 
00:30	37.0	37.0	37.0	70	28.1	0	1	338	0.00	30.175 
00:35	37.3	37.3	37.3	70	28.4	0	2	338	0.00	30.175 
00:40	37.3	37.3	37.3	70	28.4	0	1	338	0.00	30.175 
00:45	37.3	37.3	37.3	69	28.1	0	1	338	0.00	30.177 
00:50	37.2	37.2	37.2	70	28.3	0	2	338	0.00	30.177 
00:55	37.0	37.0	37.0	70	28.1	0	1	338	0.00	30.177 
01:00	36.9	36.9	36.9	70	28.0	0	1	338	0.00	30.179 
01:05	36.9	36.9	36.9	70	28.0	0	1	338	0.00	30.179 
01:10	36.8	36.8	36.8	71	28.3	0	1	338	0.00	30.179 
01:15	36.6	36.6	36.6	71	28.1	0	1	338	0.00	30.181 
01:20	36.5	36.5	36.5	71	28.0	0	1	338	0.00	30.181 
01:25	36.3	36.3	36.3	72	28.2	0	1	338	0.00	30.181 
01:30	36.2	36.2	36.2	72	28.1	0	1	338	0.00	30.189 
01:35	36.2	36.2	36.2	72	28.1	0	1	338	0.00	30.189 
01:40	36.2	36.2	36.2	72	28.1	0	1	338	0.00	30.189 
01:45	36.2	36.2	36.2	72	28.1	0	1	338	0.00	30.194 
01:50	36.0	36.0	36.0	72	27.9	0	1	338	0.00	30.194 
01:55	36.0	36.0	36.0	72	27.9	0	1	338	0.00	30.194 
02:00	36.0	36.0	36.0	71	27.5	0	1	338	0.00	30.199 
02:05	35.9	35.9	35.9	71	27.4	0	1	338	0.00	30.199 
02:10	35.8	35.8	35.8	70	27.0	0	2	338	0.00	30.199 
02:15	35.6	35.6	35.6	70	26.8	0	1	338	0.00	30.209 
02:20	35.6	35.6	35.6	70	26.8	0	2	338	0.00	30.209 
02:25	35.5	35.5	35.5	70	26.7	0	2	338	0.00	30.209 
02:30	35.3	35.3	35.3	70	26.5	0	1	338	0.00	30.211 
02:35	35.3	35.3	35.3	70	26.5	0	1	338	0.00	30.211 
02:40	35.2	35.2	35.2	70	26.4	0	1	338	0.00	30.211 
02:45	35.0	35.0	35.0	70	26.2	0	1	338	0.00	30.215 
02:50	34.9	34.9	34.9	71	26.5	0	1	338	0.00	30.215 
02:55	34.6	34.6	34.6	71	26.2	0	0	---	0.00	30.215 
03:00	34.4	34.4	34.4	72	26.3	0	0	---	0.00	30.216 
03:05	34.3	34.3	34.3	72	26.2	0	0	---	0.00	30.216 
03:10	34.1	34.1	34.1	73	26.4	0	0	---	0.00	30.216 
03:15	34.0	34.0	34.0	73	26.3	0	0	---	0.00	30.223 
03:20	33.8	33.8	33.8	73	26.1	0	1	338	0.00	30.223 
03:25	33.7	33.7	33.7	74	26.3	0	0	---	0.00	30.223 
03:30	33.5	33.5	33.5	74	26.1	0	0	---	0.00	30.231 
03:35	33.5	33.5	33.5	74	26.1	0	0	---	0.00	30.231 
03:40	33.4	33.4	33.4	75	26.3	0	0	---	0.00	30.231 
03:45	33.2	33.2	33.2	75	26.2	0	0	---	0.00	30.232 
03:50	33.1	33.1	33.1	76	26.4	0	0	---	0.00	30.232 
03:55	33.1	33.1	33.1	76	26.4	0	1	338	0.00	30.232 
04:00	33.1	33.1	33.1	76	26.4	0	0	---	0.00	30.234 
04:05	33.1	33.1	33.1	76	26.4	0	1	338	0.00	30.234 
04:10	33.1	33.1	33.1	76	26.4	0	1	338	0.00	30.234 
04:15	33.1	33.1	33.1	76	26.4	0	1	338	0.00	30.239 
04:20	33.1	33.1	33.1	76	26.4	0	1	338	0.00	30.239 
04:25	33.1	33.1	33.1	76	26.4	0	1	338	0.00	30.239 
04:30	33.1	33.1	33.1	76	26.4	0	1	338	0.00	30.242 
04:35	32.9	32.9	32.9	75	25.9	0	0	---	0.00	30.242 
04:40	32.9	32.9	32.9	75	25.9	0	0	---	0.00	30.242 
04:45	32.8	32.8	32.8	75	25.8	0	1	338	0.00	30.249 
04:50	32.7	32.7	32.7	75	25.7	0	1	338	0.00	30.249 
04:55	32.7	32.7	32.7	75	25.7	0	0	---	0.00	30.249 
05:00	32.5	32.5	32.5	76	25.8	0	0	---	0.00	30.249 
05:05	32.4	32.4	32.4	76	25.7	0	1	338	0.00	30.249 
05:10	32.2	32.2	32.2	76	25.5	0	0	---	0.00	30.249 
05:15	32.1	32.1	32.1	76	25.4	0	1	338	0.00	30.257 
05:20	32.1	32.1	32.1	77	25.7	0	1	338	0.00	30.257 
05:25	31.9	31.9	31.9	77	25.5	0	1	338	0.00	30.257 
05:30	31.9	31.9	31.9	77	25.5	0	0	---	0.00	30.264 
05:35	31.8	31.8	31.8	77	25.4	0	0	---	0.00	30.264 
05:40	31.6	31.6	31.6	77	25.2	0	0	---	0.00	30.264 
05:45	31.6	31.6	31.6	78	25.5	0	0	---	0.00	30.263 
05:50	31.5	31.5	31.5	78	25.4	0	0	---	0.00	30.263 
05:55	31.5	31.5	31.5	78	25.4	0	0	---	0.00	30.263 
06:00	31.3	31.3	31.3	78	25.3	0	0	---	0.00	30.267 
06:05	31.3	31.3	31.3	78	25.3	0	0	---	0.00	30.267 
06:10	31.2	31.2	31.2	78	25.2	0	0	---	0.00	30.267 
06:15	31.0	31.0	31.0	79	25.3	0	0	---	0.00	30.274 
06:20	31.0	31.0	31.0	79	25.3	0	0	---	0.00	30.274 
06:25	30.9	30.9	30.9	79	25.2	0	0	---	0.00	30.274 
06:30	30.7	30.7	30.7	79	25.0	0	0	---	0.00	30.283 
06:35	30.7	30.7	30.7	80	25.3	0	0	---	0.00	30.283 
06:40	30.6	30.6	30.6	80	25.2	0	0	---	0.00	30.283 
06:45	30.6	30.6	30.6	80	25.2	0	0	---	0.00	30.284 
06:50	30.6	30.6	30.6	80	25.2	0	0	---	0.00	30.284 
06:55	30.4	30.4	30.4	80	25.0	0	0	---	0.00	30.284 
07:00	30.4	30.4	30.4	81	25.3	0	0	---	0.00	30.292 
07:05	30.3	30.3	30.3	81	25.2	0	0	---	0.00	30.292 
07:10	30.3	30.3	30.3	81	25.2	0	0	---	0.00	30.292 
07:15	30.1	30.1	30.1	81	25.0	0	0	---	0.00	30.302 
07:20	30.1	30.1	30.1	81	25.0	0	0	---	0.00	30.302 
07:25	30.0	30.0	30.0	81	24.9	0	0	---	0.00	30.302 
07:30	29.8	29.8	29.8	81	24.7	0	0	---	0.00	30.304 
07:35	29.7	29.7	29.7	82	24.9	0	0	---	0.00	30.304 
07:40	29.7	29.7	29.7	82	24.9	0	0	---	0.00	30.304 
07:45	29.5	29.5	29.5	82	24.7	0	0	---	0.00	30.309 
07:50	29.5	29.5	29.5	82	24.7	0	0	---	0.00	30.309 
07:55	29.5	29.5	29.5	83	25.0	0	0	---	0.00	30.309 
08:00	29.8	29.8	29.8	83	25.3	0	1	338	0.00	30.317 
08:05	30.1	30.1	30.1	83	25.6	0	1	338	0.00	30.317 
08:10	30.6	30.6	30.6	83	26.1	0	1	338	0.00	30.317 
08:15	31.0	31.0	31.0	82	26.2	0	1	338	0.00	30.324 
08:20	31.6	31.6	31.6	82	26.7	0	1	338	0.00	30.324 
08:25	32.1	32.1	32.1	81	26.9	0	1	338	0.00	30.324 
08:30	32.5	32.5	32.5	80	27.0	0	1	338	0.00	30.325 
08:35	32.8	32.8	32.8	80	27.3	0	1	338	0.00	30.325 
08:40	33.1	33.1	33.1	79	27.3	0	1	338	0.00	30.325 
08:45	33.4	33.4	33.4	79	27.6	0	1	338	0.00	30.331 
08:50	33.8	33.8	33.8	78	27.7	0	1	338	0.00	30.331 
08:55	34.1	34.1	34.1	78	28.0	0	1	338	0.00	30.331 
09:00	34.6	34.6	34.6	77	28.1	0	1	338	0.00	30.332 
09:05	35.2	35.2	35.2	77	28.7	0	1	338	0.00	30.332 
09:10	35.6	35.6	35.6	76	28.8	0	1	338	0.00	30.332 
09:15	36.2	36.2	36.2	75	29.1	0	2	338	0.00	30.337 
09:20	36.6	36.6	36.6	74	29.1	0	1	338	0.00	30.337 
09:25	37.0	37.0	37.0	72	28.8	0	2	338	0.00	30.337 
09:30	37.6	37.6	37.6	71	29.1	0	1	338	0.00	30.338 
09:35	37.9	37.9	37.9	70	29.0	0	1	0	0.00	30.338 
09:40	38.3	38.3	38.3	70	29.4	1	3	315	0.00	30.338 
09:45	38.8	38.8	38.8	68	29.2	0	3	315	0.00	30.344 
09:50	39.1	39.1	39.1	68	29.4	0	2	202	0.00	30.344 
09:55	39.3	39.3	39.3	68	29.6	0	2	202	0.00	30.344 
10:00	39.6	39.6	39.6	66	29.2	0	3	225	0.00	30.340 
10:05	40.1	40.1	40.1	67	30.0	0	1	225	0.00	30.340 
10:10	40.5	40.5	40.5	66	30.0	0	1	225	0.00	30.340 
10:15	40.8	40.8	40.8	65	30.0	0	1	225	0.00	30.343 
10:20	41.1	41.1	41.1	64	29.9	0	1	225	0.00	30.343 
10:25	41.3	41.3	41.3	63	29.7	1	4	225	0.00	30.343 
10:30	41.8	41.8	41.8	63	30.1	0	2	225	0.00	30.340 
10:35	42.1	42.1	42.1	62	30.0	0	3	225	0.00	30.340 
10:40	42.3	42.3	42.3	61	29.8	0	1	225	0.00	30.340 
10:45	42.6	42.6	42.6	61	30.1	1	4	270	0.00	30.341 
10:50	42.8	42.8	42.8	60	29.9	0	2	270	0.00	30.341 
10:55	42.9	42.9	42.9	60	30.0	0	1	270	0.00	30.341 
11:00	43.2	43.2	43.2	60	30.3	0	2	270	0.00	30.339 
11:05	43.5	43.5	43.5	60	30.5	0	2	270	0.00	30.339 
11:10	43.8	43.8	43.8	58	30.0	0	3	270	0.00	30.339 
11:15	44.1	44.1	44.1	58	30.3	1	4	248	0.00	30.335 
11:20	44.1	44.1	44.1	57	29.9	0	2	248	0.00	30.335 
11:25	44.1	44.1	44.1	56	29.4	0	2	248	0.00	30.335 
11:30	44.3	44.3	44.3	57	30.0	0	1	248	0.00	30.331 
11:35	44.6	44.6	44.6	54	29.0	0	2	248	0.00	30.331 
11:40	44.9	44.9	44.9	54	29.3	0	2	248	0.00	30.331 
11:45	45.1	45.1	45.1	50	27.6	1	4	270	0.00	30.327 
11:50	45.1	45.1	45.1	51	28.1	1	3	270	0.00	30.327 
11:55	45.2	45.2	45.2	50	27.7	0	3	270	0.00	30.327 
12:00	45.2	45.2	45.2	51	28.2	0	2	270	0.00	30.323 
12:05	45.4	45.4	45.4	50	27.9	0	2	270	0.00	30.323 
12:10	45.5	45.5	45.5	51	28.4	0	2	270	0.00	30.323 
12:15	45.8	45.8	45.8	50	28.2	0	2	270	0.00	30.314 
12:20	45.8	45.8	45.8	48	27.2	0	3	270	0.00	30.314 
12:25	46.0	46.0	46.0	48	27.4	1	3	270	0.00	30.314 
12:30	46.2	46.2	46.2	47	27.1	0	1	90	0.00	30.313 
12:35	46.5	46.5	46.5	47	27.4	0	1	90	0.00	30.313 
12:40	46.7	46.7	46.7	45	26.5	0	3	112	0.00	30.313 
12:45	46.8	46.8	46.8	45	26.6	1	3	292	0.00	30.304 
12:50	47.0	47.0	47.0	44	26.2	0	2	270	0.00	30.304 
12:55	47.3	47.3	47.3	45	27.0	0	2	270	0.00	30.304 
13:00	47.4	47.4	47.4	42	25.5	0	3	270	0.00	30.302 
13:05	47.7	47.7	47.7	43	26.3	0	3	270	0.00	30.302 
13:10	48.2	48.2	48.2	42	26.2	0	2	270	0.00	30.302 
13:15	48.3	48.3	48.3	43	26.9	0	1	270	0.00	30.303 
13:20	48.6	48.6	48.6	40	25.4	0	2	270	0.00	30.303 
13:25	48.8	48.8	48.8	42	26.7	0	2	270	0.00	30.303 
13:30	48.9	48.9	48.9	40	25.7	0	2	270	0.00	30.299 
13:35	49.2	49.2	49.2	42	27.1	0	1	270	0.00	30.299 
13:40	49.4	49.4	49.4	39	25.5	1	3	270	0.00	30.299 
13:45	49.5	49.5	49.5	39	25.6	0	1	270	0.00	30.292 
13:50	49.5	49.5	49.5	39	25.6	0	2	270	0.00	30.292 
13:55	49.8	49.8	49.8	40	26.5	0	2	270	0.00	30.292 
14:00	49.9	49.9	49.9	37	24.7	0	1	270	0.00	30.290 
14:05	50.1	50.1	50.1	37	24.9	0	3	270	0.00	30.290 
14:10	50.2	50.2	50.2	36	24.3	0	3	270	0.00	30.290 
14:15	50.4	50.4	50.4	38	25.8	0	2	135	0.00	30.287 
14:20	50.5	50.5	50.5	36	24.6	0	2	135	0.00	30.287 
14:25	50.5	50.5	50.5	35	23.9	0	2	225	0.00	30.287 
14:30	50.7	50.7	50.7	36	24.7	0	1	225	0.00	30.283 
14:35	50.8	50.8	50.8	35	24.1	0	1	225	0.00	30.283 
14:40	50.8	50.8	50.8	36	24.8	0	1	225	0.00	30.283 
14:45	51.0	51.0	51.0	35	24.3	0	4	225	0.00	30.279 
14:50	51.0	51.0	51.0	36	25.0	0	1	225	0.00	30.279 
14:55	51.1	51.1	51.1	36	25.1	0	3	225	0.00	30.279 
15:00	51.4	51.4	51.4	36	25.4	0	2	112	0.00	30.275 
15:05	51.7	51.7	51.7	35	24.9	0	1	135	0.00	30.275 
15:10	51.9	51.9	51.9	37	26.5	0	2	135	0.00	30.275 
15:15	51.9	51.9	51.9	36	25.8	0	2	202	0.00	30.274 
15:20	51.7	51.7	51.7	36	25.6	0	3	202	0.00	30.274 
15:25	51.7	51.7	51.7	34	24.2	0	3	225	0.00	30.274 
15:30	51.6	51.6	51.6	34	24.2	1	4	248	0.00	30.272 
15:35	51.6	51.6	51.6	34	24.2	0	2	248	0.00	30.272 
15:40	51.6	51.6	51.6	35	24.9	0	1	248	0.00	30.272 
15:45	51.6	51.6	51.6	35	24.9	0	2	248	0.00	30.268 
15:50	51.4	51.4	51.4	35	24.7	0	3	90	0.00	30.268 
15:55	51.3	51.3	51.3	36	25.3	0	2	90	0.00	30.268 
16:00	51.3	51.3	51.3	37	25.9	0	1	90	0.00	30.261 
16:05	51.0	51.0	51.0	38	26.3	0	4	90	0.00	30.261 
16:10	51.0	51.0	51.0	39	26.9	0	2	90	0.00	30.261 
16:15	51.0	51.0	51.0	38	26.3	0	2	68	0.00	30.258 
16:20	50.8	50.8	50.8	38	26.1	0	2	68	0.00	30.258 
16:25	51.0	51.0	51.0	39	26.9	0	2	68	0.00	30.258 
16:30	50.8	50.8	50.8	38	26.1	0	1	68	0.00	30.257 
16:35	50.8	50.8	50.8	39	26.7	0	2	68	0.00	30.257 
16:40	50.7	50.7	50.7	39	26.7	0	1	90	0.00	30.257 
16:45	50.4	50.4	50.4	39	26.4	0	2	90	0.00	30.256 
16:50	50.2	50.2	50.2	40	26.8	0	2	90	0.00	30.256 
16:55	49.9	49.9	49.9	40	26.6	0	1	90	0.00	30.256 
17:00	49.8	49.8	49.8	41	27.1	0	1	90	0.00	30.252 
17:05	49.6	49.6	49.6	41	26.9	0	1	90	0.00	30.252 
17:10	49.5	49.5	49.5	42	27.4	0	1	90	0.00	30.252 
17:15	49.2	49.2	49.2	43	27.7	0	0	---	0.00	30.256 
17:20	48.8	48.8	48.8	43	27.3	0	0	---	0.00	30.256 
17:25	48.3	48.3	48.3	44	27.4	0	0	---	0.00	30.256 
17:30	47.9	47.9	47.9	45	27.6	0	0	---	0.00	30.259 
17:35	47.4	47.4	47.4	45	27.1	0	0	---	0.00	30.259 
17:40	47.1	47.1	47.1	46	27.4	0	1	90	0.00	30.259 
17:45	46.8	46.8	46.8	46	27.1	0	1	90	0.00	30.259 
17:50	46.7	46.7	46.7	47	27.6	0	0	---	0.00	30.259 
17:55	46.4	46.4	46.4	47	27.3	0	1	90	0.00	30.259 
18:00	46.1	46.1	46.1	47	27.0	0	0	---	0.00	30.262 
18:05	46.0	46.0	46.0	48	27.4	0	0	---	0.00	30.262 
18:10	45.7	45.7	45.7	48	27.1	0	0	---	0.00	30.262 
18:15	45.4	45.4	45.4	49	27.4	0	0	---	0.00	30.266 
18:20	45.1	45.1	45.1	49	27.1	0	0	---	0.00	30.266 
18:25	44.8	44.8	44.8	50	27.3	0	0	---	0.00	30.266 
18:30	44.6	44.6	44.6	50	27.1	0	1	90	0.00	30.265 
18:35	44.5	44.5	44.5	51	27.5	0	0	---	0.00	30.265 
18:40	44.2	44.2	44.2	51	27.2	0	0	---	0.00	30.265 
18:45	44.1	44.1	44.1	52	27.6	0	1	90	0.00	30.266 
18:50	43.9	43.9	43.9	52	27.4	0	0	---	0.00	30.266 
18:55	43.8	43.8	43.8	53	27.8	0	1	90	0.00	30.266 
19:00	43.6	43.6	43.6	53	27.6	0	1	90	0.00	30.266 
19:05	43.6	43.6	43.6	53	27.6	0	0	---	0.00	30.266 
19:10	43.6	43.6	43.6	54	28.1	0	0	---	0.00	30.266 
19:15	43.5	43.5	43.5	54	28.0	0	0	---	0.00	30.267 
19:20	43.5	43.5	43.5	54	28.0	0	1	90	0.00	30.267 
19:25	43.3	43.3	43.3	54	27.8	0	1	90	0.00	30.267 
19:30	43.3	43.3	43.3	54	27.8	0	1	90	0.00	30.267 
19:35	43.5	43.5	43.5	54	28.0	0	1	90	0.00	30.267 
19:40	43.6	43.6	43.6	54	28.1	0	1	90	0.00	30.267 
19:45	43.9	43.9	43.9	53	27.9	0	1	90	0.00	30.263 
19:50	44.1	44.1	44.1	53	28.1	0	1	90	0.00	30.263 
19:55	44.2	44.2	44.2	52	27.7	0	1	90	0.00	30.263 
20:00	44.2	44.2	44.2	52	27.7	0	1	90	0.00	30.257 
20:05	44.3	44.3	44.3	52	27.8	0	1	90	0.00	30.257 
20:10	44.3	44.3	44.3	52	27.8	0	1	90	0.00	30.257 
20:15	44.5	44.5	44.5	52	28.0	0	2	90	0.00	30.248 
20:20	44.6	44.6	44.6	52	28.1	0	1	90	0.00	30.248 
20:25	44.8	44.8	44.8	52	28.3	0	1	90	0.00	30.248 
20:30	44.9	44.9	44.9	52	28.4	0	3	90	0.00	30.245 
20:35	44.9	44.9	44.9	51	27.9	0	4	248	0.00	30.245 
20:40	45.1	45.1	45.1	51	28.1	0	3	270	0.00	30.245 
20:45	45.1	45.1	45.1	51	28.1	0	1	270	0.00	30.245 
20:50	45.1	45.1	45.1	51	28.1	0	1	270	0.00	30.245 
20:55	44.9	44.9	44.9	52	28.4	0	1	270	0.00	30.245 
21:00	44.8	44.8	44.8	52	28.3	0	1	270	0.00	30.244 
21:05	44.8	44.8	44.8	52	28.3	0	2	270	0.00	30.244 
21:10	44.6	44.6	44.6	53	28.5	0	1	270	0.00	30.244 
21:15	44.5	44.5	44.5	52	28.0	0	1	270	0.00	30.241 
21:20	44.5	44.5	44.5	53	28.4	0	1	270	0.00	30.241 
21:25	44.5	44.5	44.5	53	28.4	0	1	270	0.00	30.241 
21:30	44.5	44.5	44.5	53	28.4	0	1	270	0.00	30.238 
21:35	44.5	44.5	44.5	53	28.4	0	2	270	0.00	30.238 
21:40	44.5	44.5	44.5	53	28.4	0	1	270	0.00	30.238 
21:45	44.6	44.6	44.6	52	28.1	0	2	270	0.00	30.240 
21:50	44.6	44.6	44.6	52	28.1	0	2	270	0.00	30.240 
21:55	44.6	44.6	44.6	52	28.1	0	1	270	0.00	30.240 
22:00	44.6	44.6	44.6	52	28.1	0	2	270	0.00	30.240 
22:05	44.9	44.9	44.9	52	28.4	0	2	270	0.00	30.240 
22:10	45.1	45.1	45.1	52	28.5	0	2	270	0.00	30.240 
22:15	45.1	45.1	45.1	52	28.5	0	3	270	0.00	30.233 
22:20	45.2	45.2	45.2	51	28.2	0	4	248	0.00	30.233 
22:25	45.4	45.4	45.4	51	28.3	0	2	248	0.00	30.233 
22:30	45.4	45.4	45.4	51	28.3	0	2	248	0.00	30.233 
22:35	45.5	45.5	45.5	51	28.4	0	2	248	0.00	30.233 
22:40	45.5	45.5	45.5	51	28.4	0	3	248	0.00	30.233 
22:45	45.7	45.7	45.7	50	28.1	0	4	248	0.00	30.232 
22:50	45.7	45.7	45.7	50	28.1	0	4	225	0.00	30.232 
22:55	45.8	45.8	45.8	50	28.2	0	2	225	0.00	30.232 
23:00	46.0	46.0	46.0	50	28.4	0	3	248	0.00	30.232 
23:05	45.8	45.8	45.8	50	28.2	0	3	248	0.00	30.232 
23:10	46.0	46.0	46.0	50	28.4	1	5	248	0.00	30.232 
23:15	46.1	46.1	46.1	50	28.5	0	2	248	0.00	30.230 
23:20	46.1	46.1	46.1	50	28.5	1	5	248	0.00	30.230 
23:25	46.1	46.1	46.1	50	28.5	0	5	248	0.00	30.230 
23:30	46.1	46.1	46.1	50	28.5	0	2	248	0.00	30.229 
23:35	46.1	46.1	46.1	51	29.0	0	3	248	0.00	30.229 
23:40	46.1	46.1	46.1	51	29.0	0	3	248	0.00	30.229 
23:45	46.1	46.1	46.1	51	29.0	0	1	248	0.00	30.230 
23:50	46.1	46.1	46.1	50	28.5	1	4	248	0.00	30.230 
23:55	46.2	46.2	46.2	51	29.1	0	3	248	0.00	30.230 

CoCoRaHS
IN-AL-39
A2 Web Hosting
Creative Commons License
GoDaddy
search engine by freefind advanced

loaded 2018-11-18 11:09:32 • last modified 2010-11-18 10:43:29
Privacy PolicyDisclaimer
• wx.awcolley.com is powered by PmWiki v.2002016 •
• all content (unless otherwise noted) © 2018 A W Colley